Time;durP1;ratioP1;P1;durP2;ratioP2;P2;SDS_P1;SDS_P2;PMS_P1;PMS_P2;Temp;Humidity;BMP_temperature;BMP_pressure;BME280_temperature;BME280_humidity;BME280_pressure;Samples;Min_cycle;Max_cycle;Signal;HPM_P1;HPM_P2
2022/10/17 00:00:28;;;;;;;3.92;2.40;;;15.10;99.90;;;;;;4999794;28;20025;-74
2022/10/17 00:02:55;;;;;;;4.18;3.10;;;15.00;99.90;;;;;;5016440;28;20026;-74
2022/10/17 00:05:21;;;;;;;3.05;2.45;;;15.00;99.90;;;;;;4998786;28;20041;-74
2022/10/17 00:07:46;;;;;;;5.00;3.20;;;15.00;99.90;;;;;;4998897;28;20026;-74
2022/10/17 00:10:12;;;;;;;3.88;2.40;;;15.10;99.90;;;;;;4998750;28;20035;-74
2022/10/17 00:12:37;;;;;;;5.97;2.70;;;15.10;99.90;;;;;;4999059;28;20022;-75
2022/10/17 00:15:18;;;;;;;8.45;3.00;;;15.10;99.90;;;;;;4998968;28;20052;-73
2022/10/17 00:17:43;;;;;;;13.05;2.78;;;15.10;99.90;;;;;;4998655;28;20029;-74
2022/10/17 00:20:10;;;;;;;5.57;2.55;;;15.00;99.90;;;;;;4998647;28;20030;-74
2022/10/17 00:22:36;;;;;;;5.00;2.42;;;15.00;99.90;;;;;;4998826;28;20052;-74
2022/10/17 00:25:01;;;;;;;2.35;2.10;;;15.00;99.90;;;;;;4998567;28;20033;-73
2022/10/17 00:27:27;;;;;;;2.25;2.05;;;14.90;99.90;;;;;;4998583;28;20061;-74
2022/10/17 00:29:52;;;;;;;3.00;2.13;;;14.90;99.90;;;;;;4999614;28;20485;-74
2022/10/17 00:32:18;;;;;;;3.03;2.38;;;14.90;99.90;;;;;;5015946;28;20515;-74
2022/10/17 00:34:44;;;;;;;2.67;2.28;;;14.90;99.90;;;;;;5015791;28;20084;-73
2022/10/17 00:37:10;;;;;;;3.47;2.00;;;14.90;99.90;;;;;;4997708;28;20026;-74
2022/10/17 00:39:36;;;;;;;4.03;1.85;;;14.80;99.90;;;;;;4998277;28;20033;-74
2022/10/17 00:42:02;;;;;;;2.42;1.90;;;14.80;99.90;;;;;;4999069;28;20045;-74
2022/10/17 00:44:30;;;;;;;2.47;1.90;;;14.90;99.90;;;;;;4999058;28;20033;-74
2022/10/17 00:47:08;;;;;;;4.63;2.08;;;14.90;99.90;;;;;;4998394;28;20030;-74
2022/10/17 00:49:35;;;;;;;2.67;2.03;;;15.00;99.90;;;;;;4998152;28;20068;-75
2022/10/17 00:52:08;;;;;;;4.40;2.20;;;15.00;99.90;;;;;;4997961;28;20052;-74
2022/10/17 00:54:38;;;;;;;3.50;2.22;;;15.00;99.90;;;;;;4997957;28;20022;-74
2022/10/17 00:57:05;;;;;;;6.18;2.50;;;15.00;99.90;;;;;;4998293;28;20018;-74
2022/10/17 00:59:34;;;;;;;4.03;2.80;;;15.10;99.90;;;;;;4998327;28;20053;-74
2022/10/17 01:02:04;;;;;;;3.67;2.20;;;15.10;99.90;;;;;;5015380;28;20025;-74
2022/10/17 01:04:30;;;;;;;3.67;2.00;;;15.10;99.90;;;;;;4998161;28;20030;-74
2022/10/17 01:06:55;;;;;;;3.30;2.17;;;15.20;99.90;;;;;;5015092;28;20041;-74
2022/10/17 01:09:21;;;;;;;2.90;2.03;;;15.10;99.90;;;;;;4998783;28;20033;-74
2022/10/17 01:12:02;;;;;;;2.63;2.08;;;15.00;99.90;;;;;;5015131;28;20029;-74
2022/10/17 01:14:30;;;;;;;3.97;2.00;;;15.00;99.90;;;;;;4998150;28;20029;-74
2022/10/17 01:17:10;;;;;;;2.10;1.85;;;14.90;99.90;;;;;;4997675;28;20026;-74
2022/10/17 01:20:14;;;;;;;4.50;2.28;;;14.90;99.90;;;;;;4997517;28;20029;-74
2022/10/17 01:23:12;;;;;;;12.10;2.05;;;14.90;99.90;;;;;;4948604;28;20034;-74
2022/10/17 01:26:04;;;;;;;2.72;2.00;;;14.80;99.90;;;;;;4997967;28;20025;-74
2022/10/17 01:28:53;;;;;;;4.00;2.15;;;14.70;99.90;;;;;;5014948;28;20021;-74
2022/10/17 01:31:28;;;;;;;6.85;2.60;;;14.80;99.90;;;;;;5014893;28;20022;-74
2022/10/17 01:34:13;;;;;;;16.25;2.30;;;14.80;99.90;;;;;;4997275;28;20025;-74
2022/10/17 01:37:00;;;;;;;4.38;1.98;;;14.80;99.90;;;;;;5014954;28;20025;-74
2022/10/17 01:39:47;;;;;;;4.28;2.50;;;14.80;99.90;;;;;;5014992;28;20428;-74
2022/10/17 01:42:34;;;;;;;4.35;2.17;;;14.90;99.90;;;;;;4998061;28;20053;-74
2022/10/17 01:45:20;;;;;;;12.50;2.60;;;14.90;99.90;;;;;;4997301;28;20029;-74
2022/10/17 01:47:49;;;;;;;3.92;2.00;;;14.90;99.90;;;;;;4996947;28;20028;-74
2022/10/17 01:50:22;;;;;;;2.65;1.75;;;14.80;99.90;;;;;;4997471;28;20022;-74
2022/10/17 01:52:51;;;;;;;1.88;1.63;;;14.80;99.90;;;;;;5014795;28;20030;-74
2022/10/17 01:55:29;;;;;;;6.82;1.70;;;14.70;99.90;;;;;;4996667;28;20029;-74
2022/10/17 01:58:00;;;;;;;1.60;1.50;;;14.70;99.90;;;;;;4996856;28;20194;-74
2022/10/17 02:00:26;;;;;;;4.85;1.90;;;14.70;99.90;;;;;;4996755;28;20030;-74
2022/10/17 02:02:57;;;;;;;1.92;1.63;;;14.70;99.90;;;;;;4996716;28;20026;-75
2022/10/17 02:05:27;;;;;;;8.43;1.80;;;14.60;99.90;;;;;;4996480;28;20032;-74
2022/10/17 02:07:53;;;;;;;7.03;1.80;;;14.60;99.90;;;;;;4996739;28;20496;-74
2022/10/17 02:10:33;;;;;;;2.33;1.85;;;14.50;99.90;;;;;;4997443;28;20026;-74
2022/10/17 02:13:41;;;;;;;7.28;1.70;;;14.50;99.90;;;;;;4997359;28;20057;-74
2022/10/17 02:16:31;;;;;;;4.75;1.77;;;14.50;99.90;;;;;;4979488;28;20113;-74
2022/10/17 02:19:24;;;;;;;4.82;1.80;;;14.50;99.90;;;;;;5014088;28;20026;-74
2022/10/17 02:22:07;;;;;;;2.72;1.92;;;14.50;99.90;;;;;;5016889;28;20025;-74
2022/10/17 02:24:44;;;;;;;5.20;1.98;;;14.50;99.90;;;;;;5014399;28;20148;-74
2022/10/17 02:27:25;;;;;;;2.60;1.58;;;14.50;99.90;;;;;;5014246;28;20033;-74
2022/10/17 02:30:07;;;;;;;4.25;1.77;;;14.60;99.90;;;;;;4997103;28;20033;-74
2022/10/17 02:32:48;;;;;;;3.22;1.95;;;14.50;99.90;;;;;;4996321;28;20032;-74
2022/10/17 02:35:16;;;;;;;9.47;2.07;;;14.50;99.90;;;;;;4996632;28;20120;-75
2022/10/17 02:37:44;;;;;;;6.03;1.90;;;14.40;99.90;;;;;;4996149;28;20269;-74
2022/10/17 02:40:13;;;;;;;5.15;1.80;;;14.40;99.90;;;;;;4996166;28;20022;-74
2022/10/17 02:42:41;;;;;;;2.92;1.73;;;14.40;99.90;;;;;;4997001;28;20022;-74
2022/10/17 02:45:08;;;;;;;9.40;2.25;;;14.40;99.90;;;;;;5013949;28;20033;-73
2022/10/17 02:47:53;;;;;;;8.02;3.03;;;14.40;99.90;;;;;;5013910;28;20081;-74
2022/10/17 02:50:26;;;;;;;3.90;2.28;;;14.40;99.90;;;;;;4996652;28;20033;-74
2022/10/17 02:52:57;;;;;;;5.28;2.45;;;14.60;99.90;;;;;;4996954;28;20029;-74
2022/10/17 02:55:50;;;;;;;6.90;2.92;;;14.60;99.90;;;;;;4997076;28;20030;-73
2022/10/17 02:58:21;;;;;;;7.70;2.70;;;14.70;99.90;;;;;;5013843;28;20021;-74
2022/10/17 03:00:47;;;;;;;5.22;2.50;;;14.70;99.90;;;;;;5018381;28;20499;-74
2022/10/17 03:03:30;;;;;;;9.07;2.70;;;14.80;99.90;;;;;;5002489;28;20053;-74
2022/10/17 03:05:56;;;;;;;7.57;2.92;;;14.90;99.90;;;;;;5002791;28;20041;-73
2022/10/17 03:08:22;;;;;;;7.32;2.35;;;15.00;99.90;;;;;;5002322;28;20049;-73
2022/10/17 03:10:48;;;;;;;5.45;2.63;;;15.10;99.90;;;;;;5002289;28;20018;-73
2022/10/17 03:13:15;;;;;;;6.50;2.50;;;15.20;99.90;;;;;;5003126;28;20120;-73
2022/10/17 03:15:41;;;;;;;7.75;2.60;;;15.20;99.90;;;;;;5002522;28;20026;-73
2022/10/17 03:18:06;;;;;;;2.60;2.03;;;15.00;99.90;;;;;;5019791;28;20093;-73
2022/10/17 03:20:32;;;;;;;5.32;2.10;;;14.90;99.90;;;;;;5019801;28;20101;-73
2022/10/17 03:22:58;;;;;;;2.90;1.73;;;14.80;99.90;;;;;;5002163;28;20080;-73
2022/10/17 03:25:23;;;;;;;4.57;2.15;;;14.80;99.90;;;;;;5002114;28;20060;-73
2022/10/17 03:27:49;;;;;;;4.88;2.38;;;14.80;99.90;;;;;;5002466;28;20030;-73
2022/10/17 03:30:15;;;;;;;2.47;1.88;;;14.70;99.90;;;;;;5002427;28;20072;-73
2022/10/17 03:32:40;;;;;;;4.57;2.25;;;14.60;99.90;;;;;;5002426;28;20053;-73
2022/10/17 03:35:06;;;;;;;4.50;2.10;;;14.60;99.90;;;;;;5002055;28;20477;-73
2022/10/17 03:37:32;;;;;;;4.97;2.20;;;14.50;99.90;;;;;;5019591;28;20026;-73
2022/10/17 03:39:57;;;;;;;3.92;2.10;;;14.40;99.90;;;;;;5003084;28;20160;-73
2022/10/17 03:42:23;;;;;;;7.97;2.67;;;14.30;99.90;;;;;;5002409;28;20044;-73
2022/10/17 03:44:48;;;;;;;3.80;2.08;;;14.30;99.90;;;;;;5002231;28;20550;-73
2022/10/17 03:47:14;;;;;;;3.30;2.28;;;14.30;99.90;;;;;;5019840;28;20069;-73
2022/10/17 03:49:39;;;;;;;8.20;2.25;;;14.20;99.90;;;;;;5002023;28;20093;-73
2022/10/17 03:52:05;;;;;;;4.75;2.38;;;14.20;99.90;;;;;;5019538;28;20038;-73
2022/10/17 03:54:30;;;;;;;5.55;2.03;;;14.20;99.90;;;;;;5019706;28;20032;-73
2022/10/17 03:56:56;;;;;;;4.85;2.50;;;14.20;99.90;;;;;;5001797;28;20022;-73
2022/10/17 03:59:21;;;;;;;2.88;2.33;;;14.10;99.90;;;;;;5001851;28;20060;-73
2022/10/17 04:01:47;;;;;;;5.38;2.20;;;14.10;99.90;;;;;;5001906;28;20060;-73
2022/10/17 04:04:12;;;;;;;2.80;2.22;;;14.10;99.90;;;;;;5001765;28;20083;-73
2022/10/17 04:06:38;;;;;;;5.80;2.28;;;14.10;99.90;;;;;;5001747;28;20029;-73
2022/10/17 04:09:06;;;;;;;6.40;2.97;;;14.20;99.90;;;;;;5019645;28;20068;-73
2022/10/17 04:11:31;;;;;;;6.80;2.85;;;14.20;99.90;;;;;;4999290;28;20026;-73
2022/10/17 04:13:58;;;;;;;3.75;2.88;;;14.20;99.90;;;;;;4998659;28;20092;-73
2022/10/17 04:16:25;;;;;;;8.75;3.15;;;14.20;99.90;;;;;;4998628;28;20022;-73
2022/10/17 04:18:56;;;;;;;6.05;3.33;;;14.20;99.90;;;;;;4999135;28;20377;-73
2022/10/17 04:21:23;;;;;;;5.53;3.25;;;14.20;99.90;;;;;;4998700;28;20018;-73
2022/10/17 04:23:55;;;;;;;15.88;3.70;;;14.20;99.90;;;;;;4998538;28;20030;-73
2022/10/17 04:26:21;;;;;;;6.13;3.83;;;14.20;99.90;;;;;;4998791;28;20029;-73
2022/10/17 04:28:47;;;;;;;8.27;3.13;;;14.20;99.90;;;;;;4998460;28;20029;-73
2022/10/17 04:31:14;;;;;;;6.47;3.45;;;14.20;99.90;;;;;;5015941;28;20026;-73
2022/10/17 04:33:40;;;;;;;6.68;3.40;;;14.20;99.90;;;;;;4998548;28;20116;-73
2022/10/17 04:36:15;;;;;;;9.32;3.30;;;14.20;99.90;;;;;;5016099;28;20026;-73
2022/10/17 04:38:41;;;;;;;8.10;2.90;;;14.10;99.90;;;;;;4998193;28;20045;-73
2022/10/17 04:41:11;;;;;;;6.60;3.33;;;14.10;99.90;;;;;;4998329;28;20469;-73
2022/10/17 04:43:38;;;;;;;8.35;4.30;;;14.10;99.90;;;;;;4999347;28;20034;-73
2022/10/17 04:46:09;;;;;;;7.30;4.05;;;14.20;99.90;;;;;;4998051;28;20022;-73
2022/10/17 04:48:35;;;;;;;11.57;4.00;;;14.20;99.90;;;;;;4998133;28;20025;-73
2022/10/17 04:51:03;;;;;;;5.15;3.33;;;14.30;99.90;;;;;;4998072;28;20066;-73
2022/10/17 04:53:37;;;;;;;23.25;5.32;;;14.40;99.90;;;;;;4998768;28;20030;-73
2022/10/17 04:56:21;;;;;;;8.07;3.42;;;14.40;99.90;;;;;;4998478;28;20024;-73
2022/10/17 04:58:47;;;;;;;11.27;3.72;;;14.50;99.90;;;;;;4997882;28;20113;-73
2022/10/17 05:01:15;;;;;;;11.60;3.42;;;14.50;99.90;;;;;;4997854;28;20026;-73
2022/10/17 05:03:41;;;;;;;7.60;3.03;;;14.50;99.90;;;;;;5015366;28;20050;-73
2022/10/17 05:06:10;;;;;;;9.18;2.97;;;14.50;99.90;;;;;;4997564;28;20069;-73
2022/10/17 05:08:36;;;;;;;3.88;2.70;;;14.40;99.90;;;;;;5015565;28;20091;-73
2022/10/17 05:11:02;;;;;;;8.73;3.10;;;14.40;99.90;;;;;;5015502;28;20025;-74
2022/10/17 05:13:28;;;;;;;4.22;3.05;;;14.30;99.90;;;;;;4997515;28;20034;-74
2022/10/17 05:15:58;;;;;;;8.68;3.35;;;14.20;99.90;;;;;;4997789;28;20026;-73
2022/10/17 05:18:24;;;;;;;7.05;3.38;;;14.20;99.90;;;;;;4997593;28;20080;-73
2022/10/17 05:20:49;;;;;;;5.85;2.90;;;14.20;99.90;;;;;;5015105;28;20030;-74
2022/10/17 05:23:15;;;;;;;4.47;2.92;;;14.20;99.90;;;;;;5015274;28;20026;-74
2022/10/17 05:25:40;;;;;;;6.70;3.60;;;14.20;99.90;;;;;;5015006;28;20026;-74
2022/10/17 05:28:06;;;;;;;7.28;3.28;;;14.30;99.90;;;;;;4997396;28;20048;-74
2022/10/17 05:30:31;;;;;;;9.80;3.63;;;14.30;99.90;;;;;;4997362;28;20018;-74
2022/10/17 05:32:57;;;;;;;9.60;4.20;;;14.30;99.90;;;;;;4997300;28;20029;-74
2022/10/17 05:35:22;;;;;;;6.55;3.35;;;14.30;99.90;;;;;;4997124;28;20029;-75
2022/10/17 05:37:48;;;;;;;11.45;3.60;;;14.30;99.90;;;;;;4998045;28;20065;-74
2022/10/17 05:40:13;;;;;;;12.07;3.58;;;14.30;99.90;;;;;;5014697;28;20164;-73
2022/10/17 05:42:39;;;;;;;9.45;3.42;;;14.30;99.90;;;;;;4997143;28;20026;-73
2022/10/17 05:45:05;;;;;;;7.32;4.00;;;14.30;99.90;;;;;;4997288;28;20029;-73
2022/10/17 05:47:30;;;;;;;8.32;3.33;;;14.30;99.90;;;;;;4996876;28;20030;-73
2022/10/17 05:49:56;;;;;;;7.80;4.05;;;14.30;99.90;;;;;;4997827;28;20025;-73
2022/10/17 05:52:21;;;;;;;6.88;4.13;;;14.30;99.90;;;;;;4997007;28;20021;-73
2022/10/17 05:54:47;;;;;;;8.82;3.80;;;14.20;99.90;;;;;;4997843;28;20026;-73
2022/10/17 05:57:12;;;;;;;8.27;4.00;;;14.10;99.90;;;;;;4996655;28;20508;-73
2022/10/17 05:59:38;;;;;;;9.93;4.07;;;14.20;99.90;;;;;;5014578;28;20057;-72
2022/10/17 06:02:04;;;;;;;10.40;3.70;;;14.30;99.90;;;;;;5014232;28;20022;-72
2022/10/17 06:04:29;;;;;;;7.68;4.15;;;14.30;99.90;;;;;;4996602;28;20076;-72
2022/10/17 06:06:55;;;;;;;9.35;4.25;;;14.40;99.90;;;;;;4997031;28;20029;-72
2022/10/17 06:09:21;;;;;;;7.15;3.85;;;14.50;99.90;;;;;;4996603;28;20113;-72
2022/10/17 06:11:47;;;;;;;9.32;4.20;;;14.40;99.90;;;;;;4997321;28;20060;-73
2022/10/17 06:14:12;;;;;;;12.77;4.03;;;14.40;99.90;;;;;;4996466;28;20053;-73
2022/10/17 06:16:38;;;;;;;10.95;4.03;;;14.40;99.90;;;;;;4996385;28;20022;-72
2022/10/17 06:19:03;;;;;;;12.57;4.05;;;14.50;99.90;;;;;;4996501;28;20022;-72
2022/10/17 06:21:29;;;;;;;9.15;4.45;;;14.50;99.90;;;;;;4996437;28;20041;-72
2022/10/17 06:23:55;;;;;;;11.85;4.45;;;14.70;99.90;;;;;;4996644;28;20022;-72
2022/10/17 06:26:20;;;;;;;13.73;4.78;;;14.70;99.90;;;;;;4996556;28;20062;-72
2022/10/17 06:28:46;;;;;;;6.90;4.15;;;14.70;99.90;;;;;;4996736;28;20073;-72
2022/10/17 06:31:14;;;;;;;9.15;4.47;;;14.80;99.90;;;;;;5013788;28;20026;-72
2022/10/17 06:33:40;;;;;;;8.32;3.50;;;14.80;99.90;;;;;;4996199;28;20033;-73
2022/10/17 06:36:07;;;;;;;10.43;3.40;;;14.90;99.90;;;;;;5013022;28;20041;-73
2022/10/17 06:38:34;;;;;;;7.43;3.58;;;14.90;99.90;;;;;;5014012;28;20026;-73
2022/10/17 06:41:12;;;;;;;8.48;3.90;;;14.90;99.90;;;;;;4996121;28;20029;-73
2022/10/17 06:43:39;;;;;;;6.38;4.20;;;15.00;99.90;;;;;;4996419;28;20037;-74
2022/10/17 06:46:05;;;;;;;7.13;3.92;;;15.00;99.90;;;;;;4996914;28;20032;-74
2022/10/17 06:48:32;;;;;;;6.68;3.60;;;15.00;99.90;;;;;;4995995;28;20035;-74
2022/10/17 06:51:01;;;;;;;8.65;3.55;;;15.10;99.90;;;;;;4995966;28;20030;-74
2022/10/17 06:53:28;;;;;;;7.45;3.72;;;15.10;99.90;;;;;;4995742;28;20042;-74
2022/10/17 06:55:56;;;;;;;4.72;3.60;;;15.20;99.90;;;;;;4996203;28;20048;-74
2022/10/17 06:58:22;;;;;;;9.82;4.20;;;15.20;99.90;;;;;;5013759;28;20531;-73
2022/10/17 07:00:48;;;;;;;7.43;3.97;;;15.20;99.90;;;;;;4996382;28;20021;-73
2022/10/17 07:03:13;;;;;;;12.10;3.60;;;15.30;99.90;;;;;;4996182;28;20026;-73
2022/10/17 07:05:39;;;;;;;6.35;3.95;;;15.30;99.90;;;;;;4995604;28;20034;-74
2022/10/17 07:08:04;;;;;;;9.75;3.58;;;15.30;99.90;;;;;;5013444;28;20037;-74
2022/10/17 07:10:30;;;;;;;12.10;3.90;;;15.40;99.90;;;;;;5013899;28;20026;-74
2022/10/17 07:12:55;;;;;;;13.32;3.70;;;15.50;99.90;;;;;;5013350;28;20076;-74
2022/10/17 07:15:21;;;;;;;15.40;3.95;;;15.60;99.90;;;;;;5013160;28;20030;-73
2022/10/17 07:17:49;;;;;;;8.95;3.30;;;15.60;99.90;;;;;;4995793;28;20118;-74
2022/10/17 07:20:29;;;;;;;10.50;3.50;;;15.70;99.90;;;;;;5013284;28;20025;-73
2022/10/17 07:22:55;;;;;;;9.00;3.72;;;15.80;99.90;;;;;;4996545;28;20033;-73
2022/10/17 07:25:21;;;;;;;5.22;3.40;;;15.90;99.90;;;;;;4995628;28;20026;-73
2022/10/17 07:27:51;;;;;;;6.70;3.40;;;16.00;99.90;;;;;;5013877;28;20037;-72
2022/10/17 07:30:18;;;;;;;6.43;3.72;;;16.00;99.90;;;;;;5013558;28;20060;-73
2022/10/17 07:32:43;;;;;;;5.93;3.20;;;16.10;99.90;;;;;;4995655;28;20033;-73
2022/10/17 07:35:11;;;;;;;6.18;3.40;;;16.20;99.90;;;;;;5013015;28;20034;-73
2022/10/17 07:37:37;;;;;;;5.53;3.03;;;16.30;99.90;;;;;;4995591;28;20030;-73
2022/10/17 07:40:05;;;;;;;4.80;3.10;;;16.40;99.90;;;;;;5013427;28;20112;-72
2022/10/17 07:42:31;;;;;;;4.97;3.10;;;16.50;99.90;;;;;;5013158;28;20030;-72
2022/10/17 07:44:57;;;;;;;7.00;3.30;;;16.50;99.90;;;;;;4995453;28;20032;-73
2022/10/17 07:47:23;;;;;;;4.70;3.45;;;16.60;99.90;;;;;;4999082;28;20022;-73
2022/10/17 07:49:49;;;;;;;10.27;3.45;;;16.70;99.90;;;;;;5016784;28;20093;-73
2022/10/17 07:52:16;;;;;;;11.52;3.40;;;16.70;99.90;;;;;;4999209;28;20030;-73
2022/10/17 07:54:41;;;;;;;6.97;3.65;;;16.80;99.90;;;;;;4999309;28;20029;-73
2022/10/17 07:57:07;;;;;;;5.97;2.90;;;16.80;99.90;;;;;;4999372;28;20022;-73
2022/10/17 07:59:34;;;;;;;12.55;4.00;;;16.90;99.90;;;;;;4999360;28;20022;-73
2022/10/17 08:02:00;;;;;;;12.20;3.58;;;16.90;99.90;;;;;;4999020;28;20485;-73
2022/10/17 08:04:26;;;;;;;8.88;3.30;;;17.00;99.90;;;;;;5016847;28;20072;-72
2022/10/17 08:06:52;;;;;;;5.70;3.03;;;17.00;99.90;;;;;;4999284;28;20033;-72
2022/10/17 08:09:18;;;;;;;7.03;2.80;;;17.10;99.90;;;;;;4998859;28;20116;-72
2022/10/17 08:11:44;;;;;;;6.22;3.33;;;17.30;99.90;;;;;;5016340;28;20038;-72
2022/10/17 08:14:11;;;;;;;6.13;2.80;;;17.40;99.90;;;;;;5016238;28;20030;-72
2022/10/17 08:16:37;;;;;;;8.77;3.10;;;17.60;99.90;;;;;;5016237;28;20050;-72
2022/10/17 08:19:03;;;;;;;7.47;3.17;;;17.70;99.90;;;;;;4999028;28;20084;-73
2022/10/17 08:21:29;;;;;;;11.23;2.67;;;17.70;99.90;;;;;;4999459;28;20026;-73
2022/10/17 08:23:54;;;;;;;7.63;3.00;;;17.80;99.90;;;;;;4998554;28;20032;-73
2022/10/17 08:26:20;;;;;;;10.90;3.15;;;17.90;99.90;;;;;;4998454;28;20064;-73
2022/10/17 08:28:46;;;;;;;7.32;3.08;;;18.10;99.90;;;;;;5016051;28;20030;-73
2022/10/17 08:31:17;;;;;;;6.40;2.80;;;18.10;99.90;;;;;;4998421;28;20149;-73
2022/10/17 08:33:42;;;;;;;7.05;2.70;;;18.20;99.90;;;;;;5015901;28;20018;-73
2022/10/17 08:36:08;;;;;;;5.35;2.80;;;18.20;99.90;;;;;;5015875;28;20025;-73
2022/10/17 08:38:35;;;;;;;6.82;2.58;;;18.30;99.90;;;;;;5015879;28;20049;-73
2022/10/17 08:41:05;;;;;;;9.77;2.55;;;18.30;99.90;;;;;;4998163;28;20367;-73
2022/10/17 08:43:40;;;;;;;6.53;2.80;;;18.30;99.90;;;;;;4999091;28;20017;-73
2022/10/17 08:46:07;;;;;;;5.68;2.67;;;18.40;99.90;;;;;;4998141;28;20397;-73
2022/10/17 08:48:41;;;;;;;5.78;2.30;;;18.50;99.90;;;;;;4998171;28;20026;-73
2022/10/17 08:51:16;;;;;;;6.70;2.53;;;18.50;99.90;;;;;;4998128;28;20026;-73
2022/10/17 08:53:52;;;;;;;7.75;2.20;;;18.60;99.90;;;;;;4997955;28;20053;-73
2022/10/17 08:56:20;;;;;;;5.15;2.60;;;18.70;99.90;;;;;;5015460;28;20014;-73
2022/10/17 08:58:46;;;;;;;5.63;2.50;;;18.70;99.90;;;;;;5014819;28;20385;-73
2022/10/17 09:01:30;;;;;;;4.13;2.35;;;18.80;99.90;;;;;;5015430;28;20014;-73
2022/10/17 09:03:58;;;;;;;8.05;2.50;;;18.80;99.90;;;;;;4997973;28;20029;-73
2022/10/17 09:06:33;;;;;;;6.25;2.22;;;18.80;99.90;;;;;;4998046;28;20038;-72
2022/10/17 09:09:08;;;;;;;6.07;3.03;;;19.00;99.90;;;;;;5015379;28;20108;-72
2022/10/17 09:11:51;;;;;;;2.63;2.17;;;19.00;99.90;;;;;;4998921;28;20049;-72
2022/10/17 09:14:42;;;;;;;3.20;2.40;;;19.10;99.90;;;;;;4997601;28;20036;-71
2022/10/17 09:17:33;;;;;;;7.72;1.90;;;19.10;99.90;;;;;;4997625;28;20018;-71
2022/10/17 09:20:14;;;;;;;5.53;2.03;;;19.20;99.90;;;;;;5015115;28;20034;-71
2022/10/17 09:22:52;;;;;;;5.97;2.78;;;19.20;99.90;;;;;;4997855;28;20026;-71
2022/10/17 09:25:19;;;;;;;5.35;2.20;;;19.30;99.90;;;;;;5014954;28;20054;-71
2022/10/17 09:27:52;;;;;;;5.47;2.40;;;19.30;99.90;;;;;;5015262;28;20045;-71
2022/10/17 09:30:33;;;;;;;4.30;2.22;;;19.50;99.90;;;;;;4997444;28;20034;-71
2022/10/17 09:32:58;;;;;;;6.40;2.45;;;19.60;99.90;;;;;;4997321;28;20030;-72
2022/10/17 09:35:26;;;;;;;5.13;2.47;;;19.60;99.90;;;;;;4997136;28;20030;-72
2022/10/17 09:37:52;;;;;;;3.10;2.17;;;19.70;99.90;;;;;;4997380;28;20022;-72
2022/10/17 09:40:23;;;;;;;4.25;2.13;;;19.80;99.90;;;;;;5014766;28;20026;-72
2022/10/17 09:42:50;;;;;;;;;;;19.80;99.90;;;;;;4998581;28;20028;-72
2022/10/17 09:45:25;;;;;;;7.53;2.38;;;19.90;99.90;;;;;;5015850;28;19905;-71
2022/10/17 09:48:00;;;;;;;4.72;1.95;;;20.10;99.90;;;;;;5014796;28;20104;-72
2022/10/17 09:50:29;;;;;;;3.60;1.88;;;20.20;99.90;;;;;;4997269;28;20033;-72
2022/10/17 09:52:59;;;;;;;7.60;2.53;;;20.30;99.90;;;;;;5014640;28;20037;-71
2022/10/17 09:55:30;;;;;;;6.10;2.50;;;20.30;99.90;;;;;;4996754;28;20477;-71
2022/10/17 09:58:01;;;;;;;10.27;3.30;;;20.50;99.90;;;;;;5014482;28;20037;-71
2022/10/17 10:00:36;;;;;;;5.13;2.17;;;20.50;99.90;;;;;;5014566;28;20041;-71
2022/10/17 10:03:22;;;;;;;6.60;2.60;;;20.60;99.90;;;;;;5014448;28;20037;-71
2022/10/17 10:06:05;;;;;;;6.22;2.42;;;20.80;99.90;;;;;;5014269;28;20036;-72
2022/10/17 10:08:34;;;;;;;7.68;3.13;;;20.90;99.90;;;;;;4996630;28;20026;-71
2022/10/17 10:11:04;;;;;;;6.43;2.80;;;20.80;99.90;;;;;;4996106;28;20030;-71
2022/10/17 10:13:32;;;;;;;3.88;2.05;;;20.90;99.90;;;;;;5014770;28;20029;-71
2022/10/17 10:16:21;;;;;;;10.30;2.45;;;21.10;99.90;;;;;;4996841;28;20030;-72
2022/10/17 10:18:48;;;;;;;4.88;2.25;;;21.10;99.90;;;;;;4996797;28;20083;-72
2022/10/17 10:21:22;;;;;;;4.80;2.20;;;21.30;99.90;;;;;;4996520;28;20069;-72
2022/10/17 10:24:13;;;;;;;3.65;2.70;;;21.30;99.90;;;;;;4996718;28;20030;-72
2022/10/17 10:26:45;;;;;;;8.20;2.78;;;21.50;99.90;;;;;;4996722;28;20032;-72
2022/10/17 10:29:20;;;;;;;5.30;2.53;;;21.50;99.90;;;;;;4997046;28;20026;-72
2022/10/17 10:31:46;;;;;;;11.93;2.67;;;21.50;99.90;;;;;;4996432;28;20037;-72
2022/10/17 10:34:18;;;;;;;5.10;2.22;;;21.70;99.90;;;;;;4997009;28;20033;-72
2022/10/17 10:36:56;;;;;;;6.28;2.22;;;21.60;99.90;;;;;;4996532;28;20512;-72
2022/10/17 10:39:46;;;;;;;3.60;2.30;;;21.80;99.90;;;;;;4996267;28;20037;-74
2022/10/17 10:42:28;;;;;;;6.05;2.38;;;21.80;99.90;;;;;;4985031;28;20114;-73
2022/10/17 10:45:17;;;;;;;7.28;2.70;;;22.00;99.90;;;;;;5013753;28;20022;-72
2022/10/17 10:47:53;;;;;;;5.18;2.45;;;21.90;99.90;;;;;;4995531;28;20041;-72
2022/10/17 10:50:27;;;;;;;10.60;2.28;;;21.90;99.90;;;;;;5013617;28;20029;-72
2022/10/17 10:53:14;;;;;;;7.30;2.38;;;21.90;99.90;;;;;;4996056;28;20033;-73
2022/10/17 10:55:50;;;;;;;9.70;3.17;;;22.20;99.90;;;;;;4996415;28;20071;-71
2022/10/17 10:58:39;;;;;;;2.47;2.17;;;22.50;99.90;;;;;;5013817;28;20072;-71
2022/10/17 11:01:21;;;;;;;5.38;2.22;;;22.50;99.90;;;;;;4996031;28;20076;-71
2022/10/17 11:03:57;;;;;;;4.93;2.60;;;22.70;99.90;;;;;;5013609;28;20034;-71
2022/10/17 11:06:27;;;;;;;6.20;2.50;;;22.90;99.90;;;;;;5013327;28;20132;-74
2022/10/17 11:09:11;;;;;;;7.90;2.40;;;23.00;99.90;;;;;;5013767;28;20037;-74
2022/10/17 11:11:43;;;;;;;5.97;3.20;;;23.10;99.90;;;;;;4996719;28;20060;-72
2022/10/17 11:14:53;;;;;;;7.15;2.28;;;23.10;99.90;;;;;;4995734;28;20022;-73
2022/10/17 11:17:34;;;;;;;8.15;2.92;;;23.30;99.90;;;;;;4991858;28;20037;-71
2022/10/17 11:20:33;;;;;;;10.38;3.03;;;23.30;99.90;;;;;;5013344;28;20022;-71
2022/10/17 11:23:11;;;;;;;3.97;2.53;;;23.00;99.90;;;;;;5012028;28;20034;-71
2022/10/17 11:25:38;;;;;;;6.88;2.40;;;22.90;99.90;;;;;;4999684;28;20026;-71
2022/10/17 11:28:12;;;;;;;3.22;2.10;;;22.90;99.90;;;;;;5000066;28;20477;-71
2022/10/17 11:30:46;;;;;;;4.10;2.40;;;23.00;99.90;;;;;;5000519;28;20065;-71
2022/10/17 11:33:37;;;;;;;4.70;2.58;;;22.90;99.90;;;;;;4999559;28;20121;-71
2022/10/17 11:36:05;;;;;;;9.68;2.92;;;22.80;99.90;;;;;;4999193;28;20104;-71
2022/10/17 11:38:43;;;;;;;8.82;2.10;;;23.00;99.90;;;;;;4999396;28;20028;-71
2022/10/17 11:41:14;;;;;;;10.05;2.45;;;23.10;99.90;;;;;;5000296;28;20030;-71
2022/10/17 11:43:53;;;;;;;11.40;2.67;;;23.10;99.90;;;;;;4999445;28;20029;-71
2022/10/17 11:46:23;;;;;;;7.63;2.88;;;23.20;99.90;;;;;;5000050;28;20030;-71
2022/10/17 11:49:22;;;;;;;5.47;2.22;;;23.30;99.90;;;;;;4999806;28;20018;-71
2022/10/17 11:51:49;;;;;;;8.07;2.05;;;23.30;99.90;;;;;;4921273;29;20043;-71
2022/10/17 11:54:27;;;;;;;4.70;2.22;;;23.40;99.90;;;;;;4921765;29;20091;-71
2022/10/17 11:57:14;;;;;;;8.63;2.42;;;23.60;99.90;;;;;;4921318;29;20413;-71
2022/10/17 12:00:15;;;;;;;9.77;2.35;;;23.50;99.90;;;;;;4937164;29;20020;-71
2022/10/17 12:02:46;;;;;;;8.70;2.10;;;23.40;99.90;;;;;;4914365;29;20068;-71
2022/10/17 12:05:25;;;;;;;5.20;2.13;;;23.60;99.90;;;;;;4920933;29;20291;-72
2022/10/17 12:08:12;;;;;;;6.53;2.10;;;23.80;99.90;;;;;;4936968;29;20032;-71
2022/10/17 12:10:58;;;;;;;3.42;2.05;;;24.30;99.90;;;;;;4921347;29;20059;-71
2022/10/17 12:13:27;;;;;;;5.20;2.90;;;24.10;99.90;;;;;;4936970;29;20036;-71
2022/10/17 12:15:53;;;;;;;5.30;3.00;;;23.90;99.90;;;;;;4921003;29;20027;-72
2022/10/17 12:18:22;;;;;;;8.00;2.10;;;23.90;99.90;;;;;;4920883;29;20070;-71
2022/10/17 12:20:56;;;;;;;4.28;1.73;;;23.80;99.90;;;;;;4936618;29;20039;-71
2022/10/17 12:23:30;;;;;;;5.47;1.80;;;23.70;99.90;;;;;;4921284;29;20056;-72
2022/10/17 12:26:00;;;;;;;3.60;2.22;;;23.90;99.90;;;;;;4921201;29;20020;-71
2022/10/17 12:28:42;;;;;;;6.65;2.50;;;24.10;99.90;;;;;;4970725;28;20033;-71
2022/10/17 12:31:17;;;;;;;11.70;2.25;;;24.00;99.90;;;;;;5016678;28;20072;-71
2022/10/17 12:33:55;;;;;;;6.13;2.20;;;24.20;99.90;;;;;;5015183;28;20022;-71
2022/10/17 12:36:27;;;;;;;4.57;2.13;;;24.40;99.90;;;;;;4998362;28;20026;-71
2022/10/17 12:39:01;;;;;;;7.63;2.08;;;24.50;99.90;;;;;;4998377;28;20029;-71
2022/10/17 12:41:39;;;;;;;3.33;1.95;;;24.60;99.90;;;;;;5015924;28;20022;-71
2022/10/17 12:44:14;;;;;;;11.63;2.20;;;25.10;99.90;;;;;;4998359;28;20033;-71
2022/10/17 12:46:44;;;;;;;7.90;2.33;;;24.90;99.90;;;;;;4998079;28;20064;-72
2022/10/17 12:49:22;;;;;;;4.83;2.43;;;24.80;99.90;;;;;;4998246;28;20025;-72
2022/10/17 12:52:17;;;;;;;5.57;2.10;;;24.90;99.90;;;;;;4998100;28;20026;-72
2022/10/17 12:54:56;;;;;;;3.92;1.80;;;24.90;99.90;;;;;;4998064;28;20123;-72
2022/10/17 12:57:38;;;;;;;6.28;2.10;;;25.00;99.90;;;;;;4999255;28;20029;-72
2022/10/17 13:00:19;;;;;;;5.03;2.40;;;24.80;99.90;;;;;;5015604;28;20018;-72
2022/10/17 13:02:46;;;;;;;5.13;1.70;;;24.30;99.90;;;;;;4998545;28;20116;-71
2022/10/17 13:05:28;;;;;;;5.72;2.20;;;24.10;99.90;;;;;;4997740;28;20068;-71
2022/10/17 13:07:55;;;;;;;5.63;2.40;;;24.30;99.90;;;;;;5015570;28;20026;-71